Terminal Aerodrome Forecast
Issued by NWS Buffalo, NY

Home | Current Version | Previous Version | Text Only | Print | Product List | Glossary On
Versions: 1 2 3 4 5 6 7 8 9 10 11 12 13 14 15 16 17 18 19 20 21 22 23 24 25 26 27 28 29
000
FTUS41 KBUF 241511 AAA
TAFART
TAF AMD
KART 241511Z 2415/2512 03012G21KT P6SM -SNPL OVC007
     FM241700 03011G19KT 2SM -SN BR OVC007
     FM241900 03010KT 4SM -SHSN OVC007
     FM242300 36006KT 4SM BR VCSH OVC003
     FM250500 30005KT P6SM OVC003=

USA.gov is the U.S. government's official web portal to all federal, state and local government web resources and services.